sensor_id;sensor_type;location;lat;lon;timestamp;temperature;humidity
1175;DHT22;576;48.418;10.074;2023-12-07T00:00:24;21.60;57.10
1175;DHT22;576;48.418;10.074;2023-12-07T00:02:52;21.60;57.10
1175;DHT22;576;48.418;10.074;2023-12-07T00:05:21;21.60;57.10
1175;DHT22;576;48.418;10.074;2023-12-07T00:07:50;21.60;57.10
1175;DHT22;576;48.418;10.074;2023-12-07T00:10:18;21.60;57.10
1175;DHT22;576;48.418;10.074;2023-12-07T00:12:46;21.60;57.10
1175;DHT22;576;48.418;10.074;2023-12-07T00:15:15;21.50;57.10
1175;DHT22;576;48.418;10.074;2023-12-07T00:17:43;21.50;57.10
1175;DHT22;576;48.418;10.074;2023-12-07T00:20:12;21.50;57.10
1175;DHT22;576;48.418;10.074;2023-12-07T00:22:41;21.50;57.10
1175;DHT22;576;48.418;10.074;2023-12-07T00:25:09;21.50;57.10
1175;DHT22;576;48.418;10.074;2023-12-07T00:27:38;21.50;57.20
1175;DHT22;576;48.418;10.074;2023-12-07T00:30:07;21.50;57.20
1175;DHT22;576;48.418;10.074;2023-12-07T00:32:36;21.50;57.20
1175;DHT22;576;48.418;10.074;2023-12-07T00:35:05;21.40;57.20
1175;DHT22;576;48.418;10.074;2023-12-07T00:37:35;21.40;57.20
1175;DHT22;576;48.418;10.074;2023-12-07T00:40:05;21.40;57.20
1175;DHT22;576;48.418;10.074;2023-12-07T00:42:36;21.40;57.20
1175;DHT22;576;48.418;10.074;2023-12-07T00:45:05;21.40;57.20
1175;DHT22;576;48.418;10.074;2023-12-07T00:47:33;21.40;57.20
1175;DHT22;576;48.418;10.074;2023-12-07T00:50:01;21.40;57.30
1175;DHT22;576;48.418;10.074;2023-12-07T00:52:30;21.40;57.20
1175;DHT22;576;48.418;10.074;2023-12-07T00:54:58;21.40;57.30
1175;DHT22;576;48.418;10.074;2023-12-07T00:57:39;21.40;57.30
1175;DHT22;576;48.418;10.074;2023-12-07T01:00:25;21.30;57.30
1175;DHT22;576;48.418;10.074;2023-12-07T01:02:53;21.30;57.30
1175;DHT22;576;48.418;10.074;2023-12-07T01:05:22;21.30;57.30
1175;DHT22;576;48.418;10.074;2023-12-07T01:07:50;21.30;57.30
1175;DHT22;576;48.418;10.074;2023-12-07T01:10:18;21.30;57.30
1175;DHT22;576;48.418;10.074;2023-12-07T01:12:48;21.30;57.30
1175;DHT22;576;48.418;10.074;2023-12-07T01:15:17;21.30;57.30
1175;DHT22;576;48.418;10.074;2023-12-07T01:17:45;21.30;57.30
1175;DHT22;576;48.418;10.074;2023-12-07T01:20:13;21.30;57.30
1175;DHT22;576;48.418;10.074;2023-12-07T01:22:41;21.20;57.40
1175;DHT22;576;48.418;10.074;2023-12-07T01:25:10;21.20;57.40
1175;DHT22;576;48.418;10.074;2023-12-07T01:27:38;21.20;57.40
1175;DHT22;576;48.418;10.074;2023-12-07T01:30:09;21.20;57.40
1175;DHT22;576;48.418;10.074;2023-12-07T01:32:37;21.20;57.40
1175;DHT22;576;48.418;10.074;2023-12-07T01:35:07;21.20;57.40
1175;DHT22;576;48.418;10.074;2023-12-07T01:37:35;21.20;57.40
1175;DHT22;576;48.418;10.074;2023-12-07T01:40:05;21.20;57.40
1175;DHT22;576;48.418;10.074;2023-12-07T01:42:37;21.20;57.40
1175;DHT22;576;48.418;10.074;2023-12-07T01:45:08;21.20;57.40
1175;DHT22;576;48.418;10.074;2023-12-07T01:47:36;21.20;57.40
1175;DHT22;576;48.418;10.074;2023-12-07T01:50:06;21.10;57.40
1175;DHT22;576;48.418;10.074;2023-12-07T01:52:37;21.10;57.40
1175;DHT22;576;48.418;10.074;2023-12-07T01:55:07;21.10;57.40
1175;DHT22;576;48.418;10.074;2023-12-07T01:57:37;21.10;57.40
1175;DHT22;576;48.418;10.074;2023-12-07T02:00:08;21.10;57.40
1175;DHT22;576;48.418;10.074;2023-12-07T02:02:37;21.10;57.40
1175;DHT22;576;48.418;10.074;2023-12-07T02:05:06;21.10;57.40
1175;DHT22;576;48.418;10.074;2023-12-07T02:07:35;21.10;57.40
1175;DHT22;576;48.418;10.074;2023-12-07T02:10:04;21.10;57.40
1175;DHT22;576;48.418;10.074;2023-12-07T02:12:33;21.10;57.40
1175;DHT22;576;48.418;10.074;2023-12-07T02:15:03;21.10;57.40
1175;DHT22;576;48.418;10.074;2023-12-07T02:17:35;21.10;57.30
1175;DHT22;576;48.418;10.074;2023-12-07T02:20:11;21.10;57.30
1175;DHT22;576;48.418;10.074;2023-12-07T02:22:43;21.10;57.30
1175;DHT22;576;48.418;10.074;2023-12-07T02:25:14;21.10;57.30
1175;DHT22;576;48.418;10.074;2023-12-07T02:27:44;21.10;57.30
1175;DHT22;576;48.418;10.074;2023-12-07T02:30:13;21.00;57.30
1175;DHT22;576;48.418;10.074;2023-12-07T02:32:43;21.00;57.30
1175;DHT22;576;48.418;10.074;2023-12-07T02:35:13;21.00;57.30
1175;DHT22;576;48.418;10.074;2023-12-07T02:37:43;21.00;57.20
1175;DHT22;576;48.418;10.074;2023-12-07T02:40:12;21.00;57.30
1175;DHT22;576;48.418;10.074;2023-12-07T02:42:44;21.00;57.20
1175;DHT22;576;48.418;10.074;2023-12-07T02:45:13;21.00;57.30
1175;DHT22;576;48.418;10.074;2023-12-07T02:47:42;21.00;57.30
1175;DHT22;576;48.418;10.074;2023-12-07T02:50:12;21.00;57.30
1175;DHT22;576;48.418;10.074;2023-12-07T02:52:41;21.00;57.30
1175;DHT22;576;48.418;10.074;2023-12-07T02:55:09;21.00;57.30
1175;DHT22;576;48.418;10.074;2023-12-07T02:57:38;20.90;57.40
1175;DHT22;576;48.418;10.074;2023-12-07T03:00:09;20.90;57.40
1175;DHT22;576;48.418;10.074;2023-12-07T03:02:39;20.90;57.50
1175;DHT22;576;48.418;10.074;2023-12-07T03:05:08;20.90;57.50
1175;DHT22;576;48.418;10.074;2023-12-07T03:07:36;20.90;57.50
1175;DHT22;576;48.418;10.074;2023-12-07T03:10:08;20.90;57.50
1175;DHT22;576;48.418;10.074;2023-12-07T03:12:36;20.90;57.50
1175;DHT22;576;48.418;10.074;2023-12-07T03:15:05;20.90;57.50
1175;DHT22;576;48.418;10.074;2023-12-07T03:17:35;20.80;57.50
1175;DHT22;576;48.418;10.074;2023-12-07T03:20:04;20.80;57.50
1175;DHT22;576;48.418;10.074;2023-12-07T03:22:32;20.80;57.50
1175;DHT22;576;48.418;10.074;2023-12-07T03:25:00;20.80;57.50
1175;DHT22;576;48.418;10.074;2023-12-07T03:27:29;20.80;57.50
1175;DHT22;576;48.418;10.074;2023-12-07T03:29:57;20.80;57.50
1175;DHT22;576;48.418;10.074;2023-12-07T03:32:25;20.80;57.50
1175;DHT22;576;48.418;10.074;2023-12-07T03:34:54;20.80;57.50
1175;DHT22;576;48.418;10.074;2023-12-07T03:37:23;20.80;57.50
1175;DHT22;576;48.418;10.074;2023-12-07T03:39:51;20.70;57.60
1175;DHT22;576;48.418;10.074;2023-12-07T03:42:19;20.70;57.60
1175;DHT22;576;48.418;10.074;2023-12-07T03:45:08;20.70;57.60
1175;DHT22;576;48.418;10.074;2023-12-07T03:47:36;20.70;57.60
1175;DHT22;576;48.418;10.074;2023-12-07T03:50:06;20.70;57.60
1175;DHT22;576;48.418;10.074;2023-12-07T03:52:35;20.70;57.60
1175;DHT22;576;48.418;10.074;2023-12-07T03:55:04;20.70;57.60
1175;DHT22;576;48.418;10.074;2023-12-07T03:57:32;20.70;57.60
1175;DHT22;576;48.418;10.074;2023-12-07T04:00:00;20.70;57.60
1175;DHT22;576;48.418;10.074;2023-12-07T04:02:32;20.70;57.60
1175;DHT22;576;48.418;10.074;2023-12-07T04:05:01;20.70;57.60
1175;DHT22;576;48.418;10.074;2023-12-07T04:07:31;20.70;57.60
1175;DHT22;576;48.418;10.074;2023-12-07T04:09:59;20.60;57.60
1175;DHT22;576;48.418;10.074;2023-12-07T04:12:27;20.60;57.60
1175;DHT22;576;48.418;10.074;2023-12-07T04:14:56;20.60;57.60
1175;DHT22;576;48.418;10.074;2023-12-07T04:17:24;20.60;57.60
1175;DHT22;576;48.418;10.074;2023-12-07T04:19:52;20.60;57.60
1175;DHT22;576;48.418;10.074;2023-12-07T04:22:20;20.60;57.60
1175;DHT22;576;48.418;10.074;2023-12-07T04:24:50;20.60;57.60
1175;DHT22;576;48.418;10.074;2023-12-07T04:27:18;20.60;57.60
1175;DHT22;576;48.418;10.074;2023-12-07T04:29:46;20.60;57.60
1175;DHT22;576;48.418;10.074;2023-12-07T04:32:15;20.60;57.60
1175;DHT22;576;48.418;10.074;2023-12-07T04:34:46;20.60;57.70
1175;DHT22;576;48.418;10.074;2023-12-07T04:37:14;20.60;57.70
1175;DHT22;576;48.418;10.074;2023-12-07T04:39:43;20.50;57.70
1175;DHT22;576;48.418;10.074;2023-12-07T04:42:12;20.50;57.70
1175;DHT22;576;48.418;10.074;2023-12-07T04:44:40;20.50;57.70
1175;DHT22;576;48.418;10.074;2023-12-07T04:47:09;20.50;57.70
1175;DHT22;576;48.418;10.074;2023-12-07T04:49:37;20.50;57.70
1175;DHT22;576;48.418;10.074;2023-12-07T04:52:06;20.50;57.70
1175;DHT22;576;48.418;10.074;2023-12-07T04:54:35;20.50;57.70
1175;DHT22;576;48.418;10.074;2023-12-07T04:57:03;20.50;57.70
1175;DHT22;576;48.418;10.074;2023-12-07T04:59:33;20.50;57.70
1175;DHT22;576;48.418;10.074;2023-12-07T05:02:05;20.50;57.70
1175;DHT22;576;48.418;10.074;2023-12-07T05:04:33;20.50;57.80
1175;DHT22;576;48.418;10.074;2023-12-07T05:07:01;20.50;57.80
1175;DHT22;576;48.418;10.074;2023-12-07T05:09:31;20.50;57.80
1175;DHT22;576;48.418;10.074;2023-12-07T05:11:59;20.60;57.80
1175;DHT22;576;48.418;10.074;2023-12-07T05:14:27;20.60;57.70
1175;DHT22;576;48.418;10.074;2023-12-07T05:16:57;20.60;57.70
1175;DHT22;576;48.418;10.074;2023-12-07T05:19:25;20.70;57.60
1175;DHT22;576;48.418;10.074;2023-12-07T05:21:53;20.70;57.60
1175;DHT22;576;48.418;10.074;2023-12-07T05:24:22;20.80;57.50
1175;DHT22;576;48.418;10.074;2023-12-07T05:26:50;20.80;57.50
1175;DHT22;576;48.418;10.074;2023-12-07T05:29:18;20.90;57.40
1175;DHT22;576;48.418;10.074;2023-12-07T05:31:48;20.90;57.40
1175;DHT22;576;48.418;10.074;2023-12-07T05:34:18;21.00;57.20
1175;DHT22;576;48.418;10.074;2023-12-07T05:36:47;21.10;57.20
1175;DHT22;576;48.418;10.074;2023-12-07T05:39:15;21.10;57.10
1175;DHT22;576;48.418;10.074;2023-12-07T05:41:44;21.20;57.00
1175;DHT22;576;48.418;10.074;2023-12-07T05:44:14;21.30;57.00
1175;DHT22;576;48.418;10.074;2023-12-07T05:46:48;21.30;56.90
1175;DHT22;576;48.418;10.074;2023-12-07T05:49:18;21.40;56.90
1175;DHT22;576;48.418;10.074;2023-12-07T05:51:46;21.40;56.80
1175;DHT22;576;48.418;10.074;2023-12-07T05:54:15;21.50;56.80
1175;DHT22;576;48.418;10.074;2023-12-07T05:56:44;21.60;56.70
1175;DHT22;576;48.418;10.074;2023-12-07T05:59:13;21.60;56.60
1175;DHT22;576;48.418;10.074;2023-12-07T06:01:41;21.70;56.50
1175;DHT22;576;48.418;10.074;2023-12-07T06:04:10;21.70;56.40
1175;DHT22;576;48.418;10.074;2023-12-07T06:06:41;21.80;56.30
1175;DHT22;576;48.418;10.074;2023-12-07T06:09:09;21.80;56.30
1175;DHT22;576;48.418;10.074;2023-12-07T06:11:38;21.90;56.10
1175;DHT22;576;48.418;10.074;2023-12-07T06:14:07;22.00;56.10
1175;DHT22;576;48.418;10.074;2023-12-07T06:16:35;22.00;56.00
1175;DHT22;576;48.418;10.074;2023-12-07T06:19:04;22.00;55.90
1175;DHT22;576;48.418;10.074;2023-12-07T06:21:32;22.00;55.90
1175;DHT22;576;48.418;10.074;2023-12-07T06:24:02;22.00;55.90
1175;DHT22;576;48.418;10.074;2023-12-07T06:26:30;21.90;55.90
1175;DHT22;576;48.418;10.074;2023-12-07T06:28:58;21.90;55.90
1175;DHT22;576;48.418;10.074;2023-12-07T06:31:26;21.80;56.00
1175;DHT22;576;48.418;10.074;2023-12-07T06:33:55;21.80;56.00
1175;DHT22;576;48.418;10.074;2023-12-07T06:36:24;21.70;56.00
1175;DHT22;576;48.418;10.074;2023-12-07T06:38:53;21.70;56.10
1175;DHT22;576;48.418;10.074;2023-12-07T06:41:23;21.60;56.20
1175;DHT22;576;48.418;10.074;2023-12-07T06:43:51;21.60;56.30
1175;DHT22;576;48.418;10.074;2023-12-07T06:46:22;21.60;56.40
1175;DHT22;576;48.418;10.074;2023-12-07T06:48:51;21.60;56.40
1175;DHT22;576;48.418;10.074;2023-12-07T06:51:19;21.50;56.50
1175;DHT22;576;48.418;10.074;2023-12-07T06:53:47;21.50;56.50
1175;DHT22;576;48.418;10.074;2023-12-07T06:56:15;21.50;56.50
1175;DHT22;576;48.418;10.074;2023-12-07T06:58:45;21.50;56.60
1175;DHT22;576;48.418;10.074;2023-12-07T07:01:13;21.60;56.60
1175;DHT22;576;48.418;10.074;2023-12-07T07:03:42;21.60;56.60
1175;DHT22;576;48.418;10.074;2023-12-07T07:06:10;21.60;56.50
1175;DHT22;576;48.418;10.074;2023-12-07T07:08:38;21.60;56.50
1175;DHT22;576;48.418;10.074;2023-12-07T07:11:11;21.60;56.50
1175;DHT22;576;48.418;10.074;2023-12-07T07:13:40;21.60;56.40
1175;DHT22;576;48.418;10.074;2023-12-07T07:16:10;21.60;56.40
1175;DHT22;576;48.418;10.074;2023-12-07T07:18:39;21.60;56.40
1175;DHT22;576;48.418;10.074;2023-12-07T07:21:07;21.70;56.30
1175;DHT22;576;48.418;10.074;2023-12-07T07:23:36;21.70;56.30
1175;DHT22;576;48.418;10.074;2023-12-07T07:26:04;21.70;56.20
1175;DHT22;576;48.418;10.074;2023-12-07T07:28:32;21.70;56.20
1175;DHT22;576;48.418;10.074;2023-12-07T07:31:01;21.70;56.20
1175;DHT22;576;48.418;10.074;2023-12-07T07:33:32;21.70;56.20
1175;DHT22;576;48.418;10.074;2023-12-07T07:36:00;21.70;56.10
1175;DHT22;576;48.418;10.074;2023-12-07T07:38:28;21.70;56.10
1175;DHT22;576;48.418;10.074;2023-12-07T07:40:57;21.70;56.10
1175;DHT22;576;48.418;10.074;2023-12-07T07:43:25;21.70;56.10
1175;DHT22;576;48.418;10.074;2023-12-07T07:45:53;21.80;56.00
1175;DHT22;576;48.418;10.074;2023-12-07T07:48:22;21.70;56.50
1175;DHT22;576;48.418;10.074;2023-12-07T07:50:54;21.70;57.10
1175;DHT22;576;48.418;10.074;2023-12-07T07:53:22;21.70;57.50
1175;DHT22;576;48.418;10.074;2023-12-07T07:55:51;21.70;58.00
1175;DHT22;576;48.418;10.074;2023-12-07T07:58:19;21.70;58.30
1175;DHT22;576;48.418;10.074;2023-12-07T08:00:48;21.70;58.60
1175;DHT22;576;48.418;10.074;2023-12-07T08:03:16;21.70;58.80
1175;DHT22;576;48.418;10.074;2023-12-07T08:05:45;21.70;59.30
1175;DHT22;576;48.418;10.074;2023-12-07T08:08:14;21.70;60.20
1175;DHT22;576;48.418;10.074;2023-12-07T08:10:42;21.60;60.00
1175;DHT22;576;48.418;10.074;2023-12-07T08:13:22;21.60;59.80
1175;DHT22;576;48.418;10.074;2023-12-07T08:15:50;21.60;59.70
1175;DHT22;576;48.418;10.074;2023-12-07T08:18:23;21.60;59.50
1175;DHT22;576;48.418;10.074;2023-12-07T08:20:53;21.60;59.40
1175;DHT22;576;48.418;10.074;2023-12-07T08:23:23;21.50;59.30
1175;DHT22;576;48.418;10.074;2023-12-07T08:25:51;21.60;59.20
1175;DHT22;576;48.418;10.074;2023-12-07T08:28:19;21.60;59.10
1175;DHT22;576;48.418;10.074;2023-12-07T08:30:47;21.60;59.00
1175;DHT22;576;48.418;10.074;2023-12-07T08:33:16;21.60;58.90
1175;DHT22;576;48.418;10.074;2023-12-07T08:35:44;21.60;58.80
1175;DHT22;576;48.418;10.074;2023-12-07T08:38:12;21.60;58.70
1175;DHT22;576;48.418;10.074;2023-12-07T08:40:42;21.50;58.60
1175;DHT22;576;48.418;10.074;2023-12-07T08:43:10;21.60;58.50
1175;DHT22;576;48.418;10.074;2023-12-07T08:45:39;21.60;58.40
1175;DHT22;576;48.418;10.074;2023-12-07T08:48:07;21.50;58.40
1175;DHT22;576;48.418;10.074;2023-12-07T08:50:36;21.60;58.30
1175;DHT22;576;48.418;10.074;2023-12-07T08:53:04;21.60;58.30
1175;DHT22;576;48.418;10.074;2023-12-07T08:55:33;21.60;58.10
1175;DHT22;576;48.418;10.074;2023-12-07T08:58:03;21.60;58.00
1175;DHT22;576;48.418;10.074;2023-12-07T09:00:32;21.60;57.90
1175;DHT22;576;48.418;10.074;2023-12-07T09:03:00;21.60;57.90
1175;DHT22;576;48.418;10.074;2023-12-07T09:05:29;21.60;57.80
1175;DHT22;576;48.418;10.074;2023-12-07T09:07:58;21.60;57.80
1175;DHT22;576;48.418;10.074;2023-12-07T09:10:26;21.60;57.80
1175;DHT22;576;48.418;10.074;2023-12-07T09:12:55;21.60;57.80
1175;DHT22;576;48.418;10.074;2023-12-07T09:15:25;21.60;57.70
1175;DHT22;576;48.418;10.074;2023-12-07T09:17:54;21.60;57.60
1175;DHT22;576;48.418;10.074;2023-12-07T09:20:22;21.60;57.60
1175;DHT22;576;48.418;10.074;2023-12-07T09:22:51;21.60;57.60
1175;DHT22;576;48.418;10.074;2023-12-07T09:25:21;21.60;57.50
1175;DHT22;576;48.418;10.074;2023-12-07T09:27:50;21.70;57.50
1175;DHT22;576;48.418;10.074;2023-12-07T09:30:18;21.70;57.40
1175;DHT22;576;48.418;10.074;2023-12-07T09:32:48;21.70;57.20
1175;DHT22;576;48.418;10.074;2023-12-07T09:35:16;21.70;57.20
1175;DHT22;576;48.418;10.074;2023-12-07T09:37:48;21.70;57.10
1175;DHT22;576;48.418;10.074;2023-12-07T09:40:17;21.70;57.10
1175;DHT22;576;48.418;10.074;2023-12-07T09:42:48;21.70;57.00
1175;DHT22;576;48.418;10.074;2023-12-07T09:45:17;21.70;57.00
1175;DHT22;576;48.418;10.074;2023-12-07T09:47:50;21.70;57.00
1175;DHT22;576;48.418;10.074;2023-12-07T09:50:19;21.80;56.90
1175;DHT22;576;48.418;10.074;2023-12-07T09:52:50;21.80;56.90
1175;DHT22;576;48.418;10.074;2023-12-07T09:55:33;21.80;56.90
1175;DHT22;576;48.418;10.074;2023-12-07T09:58:03;21.80;57.00
1175;DHT22;576;48.418;10.074;2023-12-07T10:00:34;21.90;57.10
1175;DHT22;576;48.418;10.074;2023-12-07T10:03:05;21.90;57.10
1175;DHT22;576;48.418;10.074;2023-12-07T10:05:53;22.00;57.20
1175;DHT22;576;48.418;10.074;2023-12-07T10:08:29;22.00;57.20
1175;DHT22;576;48.418;10.074;2023-12-07T10:11:08;22.10;57.10
1175;DHT22;576;48.418;10.074;2023-12-07T10:13:37;22.10;57.00
1175;DHT22;576;48.418;10.074;2023-12-07T10:16:09;22.20;56.80
1175;DHT22;576;48.418;10.074;2023-12-07T10:18:39;22.20;56.60
1175;DHT22;576;48.418;10.074;2023-12-07T10:21:10;22.30;56.50
1175;DHT22;576;48.418;10.074;2023-12-07T10:23:40;22.40;56.30
1175;DHT22;576;48.418;10.074;2023-12-07T10:26:11;22.40;56.10
1175;DHT22;576;48.418;10.074;2023-12-07T10:28:40;22.50;55.90
1175;DHT22;576;48.418;10.074;2023-12-07T10:31:09;22.60;55.80
1175;DHT22;576;48.418;10.074;2023-12-07T10:33:39;22.60;55.50
1175;DHT22;576;48.418;10.074;2023-12-07T10:36:09;22.70;55.30
1175;DHT22;576;48.418;10.074;2023-12-07T10:38:37;22.80;55.10
1175;DHT22;576;48.418;10.074;2023-12-07T10:41:09;22.90;54.80
1175;DHT22;576;48.418;10.074;2023-12-07T10:43:42;23.00;54.70
1175;DHT22;576;48.418;10.074;2023-12-07T10:46:13;23.10;54.50
1175;DHT22;576;48.418;10.074;2023-12-07T10:48:45;23.10;54.40
1175;DHT22;576;48.418;10.074;2023-12-07T10:51:20;23.20;54.20
1175;DHT22;576;48.418;10.074;2023-12-07T10:53:51;23.30;54.00
1175;DHT22;576;48.418;10.074;2023-12-07T10:56:28;23.30;53.90
1175;DHT22;576;48.418;10.074;2023-12-07T10:58:57;23.40;54.00
1175;DHT22;576;48.418;10.074;2023-12-07T11:01:26;23.50;53.60
1175;DHT22;576;48.418;10.074;2023-12-07T11:03:56;23.50;53.50
1175;DHT22;576;48.418;10.074;2023-12-07T11:06:25;23.60;53.20
1175;DHT22;576;48.418;10.074;2023-12-07T11:08:56;23.60;53.20
1175;DHT22;576;48.418;10.074;2023-12-07T11:11:29;23.60;53.20
1175;DHT22;576;48.418;10.074;2023-12-07T11:14:02;23.70;53.40
1175;DHT22;576;48.418;10.074;2023-12-07T11:16:31;23.70;53.50
1175;DHT22;576;48.418;10.074;2023-12-07T11:19:01;23.70;53.50
1175;DHT22;576;48.418;10.074;2023-12-07T11:21:31;23.70;53.70
1175;DHT22;576;48.418;10.074;2023-12-07T11:24:00;23.70;53.60
1175;DHT22;576;48.418;10.074;2023-12-07T11:26:29;23.70;53.70
1175;DHT22;576;48.418;10.074;2023-12-07T11:28:57;23.70;53.80
1175;DHT22;576;48.418;10.074;2023-12-07T11:31:26;23.80;53.30
1175;DHT22;576;48.418;10.074;2023-12-07T11:33:55;23.80;52.90
1175;DHT22;576;48.418;10.074;2023-12-07T11:36:25;23.90;52.60
1175;DHT22;576;48.418;10.074;2023-12-07T11:39:15;23.90;52.60
1175;DHT22;576;48.418;10.074;2023-12-07T11:41:55;23.90;52.30
1175;DHT22;576;48.418;10.074;2023-12-07T11:44:33;24.00;52.30
1175;DHT22;576;48.418;10.074;2023-12-07T11:47:02;24.00;52.20
1175;DHT22;576;48.418;10.074;2023-12-07T11:49:32;24.00;52.20
1175;DHT22;576;48.418;10.074;2023-12-07T11:52:14;24.10;52.10
1175;DHT22;576;48.418;10.074;2023-12-07T11:54:44;24.10;52.20
1175;DHT22;576;48.418;10.074;2023-12-07T11:57:13;24.20;52.20
1175;DHT22;576;48.418;10.074;2023-12-07T11:59:44;24.20;52.20
1175;DHT22;576;48.418;10.074;2023-12-07T12:02:12;24.20;52.20
1175;DHT22;576;48.418;10.074;2023-12-07T12:04:41;24.20;52.20
1175;DHT22;576;48.418;10.074;2023-12-07T12:07:10;24.20;52.30
1175;DHT22;576;48.418;10.074;2023-12-07T12:09:39;24.20;52.30
1175;DHT22;576;48.418;10.074;2023-12-07T12:12:08;24.30;52.20
1175;DHT22;576;48.418;10.074;2023-12-07T12:14:36;24.30;52.10
1175;DHT22;576;48.418;10.074;2023-12-07T12:17:05;24.30;52.00
1175;DHT22;576;48.418;10.074;2023-12-07T12:19:33;24.30;51.90
1175;DHT22;576;48.418;10.074;2023-12-07T12:22:03;24.30;51.90
1175;DHT22;576;48.418;10.074;2023-12-07T12:24:35;24.30;51.90
1175;DHT22;576;48.418;10.074;2023-12-07T12:27:08;24.20;52.00
1175;DHT22;576;48.418;10.074;2023-12-07T12:29:36;24.20;52.10
1175;DHT22;576;48.418;10.074;2023-12-07T12:32:05;24.30;52.20
1175;DHT22;576;48.418;10.074;2023-12-07T12:34:33;24.30;52.20
1175;DHT22;576;48.418;10.074;2023-12-07T12:37:02;24.30;52.30
1175;DHT22;576;48.418;10.074;2023-12-07T12:39:33;24.30;52.50
1175;DHT22;576;48.418;10.074;2023-12-07T12:42:02;24.30;52.40
1175;DHT22;576;48.418;10.074;2023-12-07T12:44:33;24.30;52.50
1175;DHT22;576;48.418;10.074;2023-12-07T12:47:05;24.30;52.60
1175;DHT22;576;48.418;10.074;2023-12-07T12:49:36;24.30;52.60
1175;DHT22;576;48.418;10.074;2023-12-07T12:52:09;24.40;52.50
1175;DHT22;576;48.418;10.074;2023-12-07T12:54:39;24.40;52.50
1175;DHT22;576;48.418;10.074;2023-12-07T12:57:07;24.40;52.40
1175;DHT22;576;48.418;10.074;2023-12-07T12:59:37;24.40;52.60
1175;DHT22;576;48.418;10.074;2023-12-07T13:02:05;24.40;52.60
1175;DHT22;576;48.418;10.074;2023-12-07T13:04:37;24.40;52.60
1175;DHT22;576;48.418;10.074;2023-12-07T13:07:08;24.40;52.50
1175;DHT22;576;48.418;10.074;2023-12-07T13:09:37;24.40;52.60
1175;DHT22;576;48.418;10.074;2023-12-07T13:12:06;24.40;52.50
1175;DHT22;576;48.418;10.074;2023-12-07T13:14:34;24.40;52.50
1175;DHT22;576;48.418;10.074;2023-12-07T13:17:06;24.30;52.50
1175;DHT22;576;48.418;10.074;2023-12-07T13:19:35;24.30;52.50
1175;DHT22;576;48.418;10.074;2023-12-07T13:22:04;24.30;52.50
1175;DHT22;576;48.418;10.074;2023-12-07T13:24:33;24.20;52.60
1175;DHT22;576;48.418;10.074;2023-12-07T13:27:02;24.20;52.70
1175;DHT22;576;48.418;10.074;2023-12-07T13:29:30;24.10;52.80
1175;DHT22;576;48.418;10.074;2023-12-07T13:32:03;24.10;52.60
1175;DHT22;576;48.418;10.074;2023-12-07T13:34:33;24.10;52.70
1175;DHT22;576;48.418;10.074;2023-12-07T13:37:02;24.00;52.60
1175;DHT22;576;48.418;10.074;2023-12-07T13:39:30;24.00;52.50
1175;DHT22;576;48.418;10.074;2023-12-07T13:41:59;24.00;52.60
1175;DHT22;576;48.418;10.074;2023-12-07T13:44:31;24.00;52.50
1175;DHT22;576;48.418;10.074;2023-12-07T13:47:00;24.00;52.40
1175;DHT22;576;48.418;10.074;2023-12-07T13:49:29;23.90;52.40
1175;DHT22;576;48.418;10.074;2023-12-07T13:52:02;23.90;52.20
1175;DHT22;576;48.418;10.074;2023-12-07T13:54:35;23.80;52.30
1175;DHT22;576;48.418;10.074;2023-12-07T13:57:06;23.80;52.10
1175;DHT22;576;48.418;10.074;2023-12-07T13:59:35;23.70;52.50
1175;DHT22;576;48.418;10.074;2023-12-07T14:02:05;23.70;52.50
1175;DHT22;576;48.418;10.074;2023-12-07T14:04:33;23.70;52.60
1175;DHT22;576;48.418;10.074;2023-12-07T14:07:11;23.60;52.60
1175;DHT22;576;48.418;10.074;2023-12-07T14:09:42;23.60;52.70
1175;DHT22;576;48.418;10.074;2023-12-07T14:12:23;23.60;52.60
1175;DHT22;576;48.418;10.074;2023-12-07T14:14:52;23.50;52.50
1175;DHT22;576;48.418;10.074;2023-12-07T14:17:22;23.50;52.50
1175;DHT22;576;48.418;10.074;2023-12-07T14:19:53;23.50;52.60
1175;DHT22;576;48.418;10.074;2023-12-07T14:22:42;23.50;52.60
1175;DHT22;576;48.418;10.074;2023-12-07T14:25:13;23.50;52.50
1175;DHT22;576;48.418;10.074;2023-12-07T14:27:42;23.50;52.50
1175;DHT22;576;48.418;10.074;2023-12-07T14:30:12;23.50;52.40
1175;DHT22;576;48.418;10.074;2023-12-07T14:32:43;23.50;52.30
1175;DHT22;576;48.418;10.074;2023-12-07T14:35:18;23.50;52.40
1175;DHT22;576;48.418;10.074;2023-12-07T14:37:49;23.50;52.30
1175;DHT22;576;48.418;10.074;2023-12-07T14:40:18;23.50;52.20
1175;DHT22;576;48.418;10.074;2023-12-07T14:42:46;23.50;52.10
1175;DHT22;576;48.418;10.074;2023-12-07T14:45:14;23.50;52.00
1175;DHT22;576;48.418;10.074;2023-12-07T14:47:43;23.50;52.00
1175;DHT22;576;48.418;10.074;2023-12-07T14:50:13;23.40;52.00
1175;DHT22;576;48.418;10.074;2023-12-07T14:52:41;23.40;51.90
1175;DHT22;576;48.418;10.074;2023-12-07T14:55:11;23.40;51.90
1175;DHT22;576;48.418;10.074;2023-12-07T14:57:40;23.40;51.90
1175;DHT22;576;48.418;10.074;2023-12-07T15:00:08;23.40;51.90
1175;DHT22;576;48.418;10.074;2023-12-07T15:02:37;23.40;51.90
1175;DHT22;576;48.418;10.074;2023-12-07T15:05:06;23.30;51.90
1175;DHT22;576;48.418;10.074;2023-12-07T15:07:35;23.30;51.90
1175;DHT22;576;48.418;10.074;2023-12-07T15:10:04;23.30;51.90
1175;DHT22;576;48.418;10.074;2023-12-07T15:12:34;23.20;52.00
1175;DHT22;576;48.418;10.074;2023-12-07T15:15:03;23.20;52.00
1175;DHT22;576;48.418;10.074;2023-12-07T15:17:33;23.20;51.90
1175;DHT22;576;48.418;10.074;2023-12-07T15:20:01;23.10;51.90
1175;DHT22;576;48.418;10.074;2023-12-07T15:22:30;23.10;52.00
1175;DHT22;576;48.418;10.074;2023-12-07T15:24:58;23.10;52.00
1175;DHT22;576;48.418;10.074;2023-12-07T15:27:27;23.10;52.10
1175;DHT22;576;48.418;10.074;2023-12-07T15:29:56;23.10;52.20
1175;DHT22;576;48.418;10.074;2023-12-07T15:32:24;23.00;52.10
1175;DHT22;576;48.418;10.074;2023-12-07T15:34:53;23.00;52.10
1175;DHT22;576;48.418;10.074;2023-12-07T15:37:22;23.00;52.20
1175;DHT22;576;48.418;10.074;2023-12-07T15:39:51;23.00;52.20
1175;DHT22;576;48.418;10.074;2023-12-07T15:42:19;23.00;52.20
1175;DHT22;576;48.418;10.074;2023-12-07T15:44:48;22.90;52.20
1175;DHT22;576;48.418;10.074;2023-12-07T15:47:17;22.90;52.20
1175;DHT22;576;48.418;10.074;2023-12-07T15:49:46;22.90;52.30
1175;DHT22;576;48.418;10.074;2023-12-07T15:52:14;22.90;52.30
1175;DHT22;576;48.418;10.074;2023-12-07T15:54:42;22.90;52.20
1175;DHT22;576;48.418;10.074;2023-12-07T15:57:11;22.90;52.20
1175;DHT22;576;48.418;10.074;2023-12-07T15:59:39;22.90;52.20
1175;DHT22;576;48.418;10.074;2023-12-07T16:02:08;22.80;52.20
1175;DHT22;576;48.418;10.074;2023-12-07T16:04:38;22.80;52.20
1175;DHT22;576;48.418;10.074;2023-12-07T16:07:06;22.80;52.20
1175;DHT22;576;48.418;10.074;2023-12-07T16:09:38;22.80;52.10
1175;DHT22;576;48.418;10.074;2023-12-07T16:12:10;22.80;52.10
1175;DHT22;576;48.418;10.074;2023-12-07T16:14:39;22.80;52.10
1175;DHT22;576;48.418;10.074;2023-12-07T16:17:09;22.80;52.10